sensor_id;sensor_type;location;lat;lon;timestamp;P1;durP1;ratioP1;P2;durP2;ratioP2
31848;SDS011;18414;59.352;18.152;2023-06-26T00:02:01;5.32;;;3.75;;
31848;SDS011;18414;59.352;18.152;2023-06-26T00:04:26;5.35;;;3.25;;
31848;SDS011;18414;59.352;18.152;2023-06-26T00:06:51;6.18;;;4.85;;
31848;SDS011;18414;59.352;18.152;2023-06-26T00:09:17;4.57;;;4.15;;
31848;SDS011;18414;59.352;18.152;2023-06-26T00:11:42;4.32;;;3.67;;
31848;SDS011;18414;59.352;18.152;2023-06-26T00:14:07;4.13;;;3.73;;
31848;SDS011;18414;59.352;18.152;2023-06-26T00:16:33;7.60;;;4.22;;
31848;SDS011;18414;59.352;18.152;2023-06-26T00:18:59;7.88;;;3.90;;
31848;SDS011;18414;59.352;18.152;2023-06-26T00:21:24;4.97;;;3.88;;
31848;SDS011;18414;59.352;18.152;2023-06-26T00:23:50;4.57;;;4.10;;
31848;SDS011;18414;59.352;18.152;2023-06-26T00:26:16;4.40;;;3.55;;
31848;SDS011;18414;59.352;18.152;2023-06-26T00:28:41;4.88;;;4.13;;
31848;SDS011;18414;59.352;18.152;2023-06-26T00:31:07;6.75;;;4.75;;
31848;SDS011;18414;59.352;18.152;2023-06-26T00:33:32;4.97;;;4.03;;
31848;SDS011;18414;59.352;18.152;2023-06-26T00:35:57;5.00;;;3.65;;
31848;SDS011;18414;59.352;18.152;2023-06-26T00:38:22;5.15;;;3.65;;
31848;SDS011;18414;59.352;18.152;2023-06-26T00:40:48;4.22;;;3.83;;
31848;SDS011;18414;59.352;18.152;2023-06-26T00:43:14;4.27;;;3.77;;
31848;SDS011;18414;59.352;18.152;2023-06-26T00:45:39;4.68;;;3.63;;
31848;SDS011;18414;59.352;18.152;2023-06-26T00:48:05;4.57;;;3.95;;
31848;SDS011;18414;59.352;18.152;2023-06-26T00:50:30;4.13;;;3.65;;
31848;SDS011;18414;59.352;18.152;2023-06-26T00:52:56;4.30;;;3.90;;
31848;SDS011;18414;59.352;18.152;2023-06-26T00:55:26;4.80;;;4.10;;
31848;SDS011;18414;59.352;18.152;2023-06-26T00:57:52;5.00;;;4.00;;
31848;SDS011;18414;59.352;18.152;2023-06-26T01:00:18;4.13;;;3.73;;
31848;SDS011;18414;59.352;18.152;2023-06-26T01:02:44;5.47;;;4.17;;
31848;SDS011;18414;59.352;18.152;2023-06-26T01:05:09;4.30;;;3.90;;
31848;SDS011;18414;59.352;18.152;2023-06-26T01:07:38;4.50;;;3.72;;
31848;SDS011;18414;59.352;18.152;2023-06-26T01:10:04;4.63;;;4.10;;
31848;SDS011;18414;59.352;18.152;2023-06-26T01:12:31;4.30;;;3.77;;
31848;SDS011;18414;59.352;18.152;2023-06-26T01:14:57;4.20;;;3.70;;
31848;SDS011;18414;59.352;18.152;2023-06-26T01:17:23;4.50;;;4.10;;
31848;SDS011;18414;59.352;18.152;2023-06-26T01:19:48;4.22;;;3.83;;
31848;SDS011;18414;59.352;18.152;2023-06-26T01:27:29;4.63;;;3.73;;
31848;SDS011;18414;59.352;18.152;2023-06-26T01:29:57;5.83;;;3.87;;
31848;SDS011;18414;59.352;18.152;2023-06-26T01:32:23;4.87;;;3.90;;
31848;SDS011;18414;59.352;18.152;2023-06-26T01:34:49;4.10;;;3.70;;
31848;SDS011;18414;59.352;18.152;2023-06-26T01:37:15;8.23;;;4.10;;
31848;SDS011;18414;59.352;18.152;2023-06-26T01:39:40;5.77;;;4.13;;
31848;SDS011;18414;59.352;18.152;2023-06-26T01:42:06;11.93;;;4.20;;
31848;SDS011;18414;59.352;18.152;2023-06-26T01:44:32;8.00;;;4.33;;
31848;SDS011;18414;59.352;18.152;2023-06-26T01:47:04;4.97;;;4.15;;
31848;SDS011;18414;59.352;18.152;2023-06-26T01:52:21;4.37;;;3.90;;
31848;SDS011;18414;59.352;18.152;2023-06-26T01:55:30;5.87;;;3.97;;
31848;SDS011;18414;59.352;18.152;2023-06-26T01:57:48;5.47;;;4.23;;
31848;SDS011;18414;59.352;18.152;2023-06-26T02:00:17;6.27;;;4.10;;
31848;SDS011;18414;59.352;18.152;2023-06-26T02:02:44;5.97;;;4.30;;
31848;SDS011;18414;59.352;18.152;2023-06-26T02:05:10;4.73;;;4.20;;
31848;SDS011;18414;59.352;18.152;2023-06-26T02:07:35;4.80;;;4.10;;
31848;SDS011;18414;59.352;18.152;2023-06-26T02:10:01;4.33;;;3.50;;
31848;SDS011;18414;59.352;18.152;2023-06-26T02:12:27;3.80;;;3.37;;
31848;SDS011;18414;59.352;18.152;2023-06-26T02:14:52;3.67;;;3.00;;
31848;SDS011;18414;59.352;18.152;2023-06-26T02:17:18;2.53;;;2.33;;
31848;SDS011;18414;59.352;18.152;2023-06-26T02:19:43;5.93;;;3.40;;
31848;SDS011;18414;59.352;18.152;2023-06-26T02:22:12;5.53;;;3.67;;
31848;SDS011;18414;59.352;18.152;2023-06-26T02:24:41;3.90;;;3.50;;
31848;SDS011;18414;59.352;18.152;2023-06-26T02:27:06;3.97;;;3.50;;
31848;SDS011;18414;59.352;18.152;2023-06-26T02:29:32;2.77;;;2.57;;
31848;SDS011;18414;59.352;18.152;2023-06-26T02:31:57;5.10;;;3.27;;
31848;SDS011;18414;59.352;18.152;2023-06-26T02:34:23;3.30;;;3.00;;
31848;SDS011;18414;59.352;18.152;2023-06-26T02:36:48;4.10;;;3.20;;
31848;SDS011;18414;59.352;18.152;2023-06-26T02:39:14;3.28;;;2.92;;
31848;SDS011;18414;59.352;18.152;2023-06-26T02:41:39;4.60;;;3.03;;
31848;SDS011;18414;59.352;18.152;2023-06-26T02:44:05;3.53;;;2.80;;
31848;SDS011;18414;59.352;18.152;2023-06-26T02:46:31;3.70;;;2.95;;
31848;SDS011;18414;59.352;18.152;2023-06-26T02:48:56;3.72;;;3.38;;
31848;SDS011;18414;59.352;18.152;2023-06-26T02:51:22;7.78;;;3.00;;
31848;SDS011;18414;59.352;18.152;2023-06-26T02:53:47;3.58;;;3.25;;
31848;SDS011;18414;59.352;18.152;2023-06-26T02:56:12;3.40;;;3.10;;
31848;SDS011;18414;59.352;18.152;2023-06-26T02:58:38;3.35;;;2.90;;
31848;SDS011;18414;59.352;18.152;2023-06-26T03:01:03;4.30;;;3.08;;
31848;SDS011;18414;59.352;18.152;2023-06-26T03:03:28;3.47;;;3.10;;
31848;SDS011;18414;59.352;18.152;2023-06-26T03:05:54;3.17;;;2.88;;
31848;SDS011;18414;59.352;18.152;2023-06-26T03:08:19;4.97;;;2.97;;
31848;SDS011;18414;59.352;18.152;2023-06-26T03:10:44;3.55;;;3.10;;
31848;SDS011;18414;59.352;18.152;2023-06-26T03:13:10;5.75;;;3.78;;
31848;SDS011;18414;59.352;18.152;2023-06-26T03:15:35;4.20;;;3.80;;
31848;SDS011;18414;59.352;18.152;2023-06-26T03:18:00;4.65;;;3.72;;
31848;SDS011;18414;59.352;18.152;2023-06-26T03:20:26;4.72;;;3.95;;
31848;SDS011;18414;59.352;18.152;2023-06-26T03:22:51;3.30;;;2.88;;
31848;SDS011;18414;59.352;18.152;2023-06-26T03:25:17;3.53;;;2.83;;
31848;SDS011;18414;59.352;18.152;2023-06-26T03:27:42;3.25;;;2.95;;
31848;SDS011;18414;59.352;18.152;2023-06-26T03:30:08;4.05;;;2.90;;
31848;SDS011;18414;59.352;18.152;2023-06-26T03:32:33;4.28;;;3.00;;
31848;SDS011;18414;59.352;18.152;2023-06-26T03:34:59;3.33;;;3.00;;
31848;SDS011;18414;59.352;18.152;2023-06-26T03:37:25;3.25;;;2.80;;
31848;SDS011;18414;59.352;18.152;2023-06-26T03:39:51;4.60;;;2.80;;
31848;SDS011;18414;59.352;18.152;2023-06-26T03:42:16;3.00;;;2.70;;
31848;SDS011;18414;59.352;18.152;2023-06-26T03:44:41;2.72;;;2.53;;
31848;SDS011;18414;59.352;18.152;2023-06-26T03:47:07;4.55;;;2.92;;
31848;SDS011;18414;59.352;18.152;2023-06-26T03:49:32;3.75;;;2.75;;
31848;SDS011;18414;59.352;18.152;2023-06-26T03:51:59;3.35;;;2.83;;
31848;SDS011;18414;59.352;18.152;2023-06-26T03:54:24;3.35;;;3.00;;
31848;SDS011;18414;59.352;18.152;2023-06-26T03:56:49;5.05;;;3.28;;
31848;SDS011;18414;59.352;18.152;2023-06-26T03:59:14;3.60;;;3.30;;
31848;SDS011;18414;59.352;18.152;2023-06-26T04:01:40;3.50;;;3.20;;
31848;SDS011;18414;59.352;18.152;2023-06-26T04:04:05;4.57;;;3.33;;
31848;SDS011;18414;59.352;18.152;2023-06-26T04:06:30;3.53;;;3.22;;
31848;SDS011;18414;59.352;18.152;2023-06-26T04:08:59;4.93;;;3.42;;
31848;SDS011;18414;59.352;18.152;2023-06-26T04:11:24;3.83;;;3.40;;
31848;SDS011;18414;59.352;18.152;2023-06-26T04:13:50;4.45;;;3.30;;
31848;SDS011;18414;59.352;18.152;2023-06-26T04:16:15;3.80;;;3.42;;
31848;SDS011;18414;59.352;18.152;2023-06-26T04:18:41;4.55;;;3.50;;
31848;SDS011;18414;59.352;18.152;2023-06-26T04:21:10;4.45;;;3.75;;
31848;SDS011;18414;59.352;18.152;2023-06-26T04:23:37;5.75;;;3.83;;
31848;SDS011;18414;59.352;18.152;2023-06-26T04:26:03;4.90;;;3.40;;
31848;SDS011;18414;59.352;18.152;2023-06-26T04:28:29;3.38;;;3.08;;
31848;SDS011;18414;59.352;18.152;2023-06-26T04:30:55;3.80;;;3.50;;
31848;SDS011;18414;59.352;18.152;2023-06-26T04:33:20;3.40;;;3.10;;
31848;SDS011;18414;59.352;18.152;2023-06-26T04:35:46;3.47;;;2.92;;
31848;SDS011;18414;59.352;18.152;2023-06-26T04:38:13;4.13;;;3.42;;
31848;SDS011;18414;59.352;18.152;2023-06-26T04:40:41;3.50;;;3.20;;
31848;SDS011;18414;59.352;18.152;2023-06-26T04:43:07;4.10;;;3.10;;
31848;SDS011;18414;59.352;18.152;2023-06-26T04:45:32;4.72;;;3.20;;
31848;SDS011;18414;59.352;18.152;2023-06-26T04:47:57;5.75;;;3.35;;
31848;SDS011;18414;59.352;18.152;2023-06-26T04:50:25;5.85;;;3.05;;
31848;SDS011;18414;59.352;18.152;2023-06-26T04:52:51;3.40;;;3.10;;
31848;SDS011;18414;59.352;18.152;2023-06-26T04:55:16;4.18;;;3.10;;
31848;SDS011;18414;59.352;18.152;2023-06-26T04:57:41;3.83;;;3.15;;
31848;SDS011;18414;59.352;18.152;2023-06-26T05:00:07;3.13;;;2.83;;
31848;SDS011;18414;59.352;18.152;2023-06-26T05:02:35;4.45;;;3.15;;
31848;SDS011;18414;59.352;18.152;2023-06-26T05:05:01;3.58;;;2.90;;
31848;SDS011;18414;59.352;18.152;2023-06-26T05:07:26;2.95;;;2.53;;
31848;SDS011;18414;59.352;18.152;2023-06-26T05:09:52;3.38;;;2.85;;
31848;SDS011;18414;59.352;18.152;2023-06-26T05:12:17;3.75;;;2.50;;
31848;SDS011;18414;59.352;18.152;2023-06-26T05:14:42;3.17;;;2.70;;
31848;SDS011;18414;59.352;18.152;2023-06-26T05:17:08;2.88;;;2.40;;
31848;SDS011;18414;59.352;18.152;2023-06-26T05:19:33;3.53;;;2.50;;
31848;SDS011;18414;59.352;18.152;2023-06-26T05:21:58;2.47;;;2.25;;
31848;SDS011;18414;59.352;18.152;2023-06-26T05:24:28;2.60;;;2.38;;
31848;SDS011;18414;59.352;18.152;2023-06-26T05:26:55;3.15;;;2.50;;
31848;SDS011;18414;59.352;18.152;2023-06-26T05:29:21;3.22;;;2.10;;
31848;SDS011;18414;59.352;18.152;2023-06-26T05:31:46;2.80;;;2.20;;
31848;SDS011;18414;59.352;18.152;2023-06-26T05:34:12;2.40;;;2.20;;
31848;SDS011;18414;59.352;18.152;2023-06-26T05:36:38;2.60;;;2.22;;
31848;SDS011;18414;59.352;18.152;2023-06-26T05:39:04;3.00;;;2.58;;
31848;SDS011;18414;59.352;18.152;2023-06-26T05:41:29;2.83;;;2.50;;
31848;SDS011;18414;59.352;18.152;2023-06-26T05:43:55;2.60;;;2.10;;
31848;SDS011;18414;59.352;18.152;2023-06-26T05:46:20;3.88;;;2.20;;
31848;SDS011;18414;59.352;18.152;2023-06-26T05:48:46;2.33;;;2.03;;
31848;SDS011;18414;59.352;18.152;2023-06-26T05:51:12;2.22;;;1.58;;
31848;SDS011;18414;59.352;18.152;2023-06-26T05:53:38;3.10;;;2.33;;
31848;SDS011;18414;59.352;18.152;2023-06-26T05:56:03;3.78;;;2.33;;
31848;SDS011;18414;59.352;18.152;2023-06-26T05:58:29;2.60;;;2.22;;
31848;SDS011;18414;59.352;18.152;2023-06-26T06:00:55;2.47;;;2.28;;
31848;SDS011;18414;59.352;18.152;2023-06-26T06:03:20;2.70;;;2.38;;
31848;SDS011;18414;59.352;18.152;2023-06-26T06:05:46;2.50;;;2.30;;
31848;SDS011;18414;59.352;18.152;2023-06-26T06:08:11;3.05;;;2.08;;
31848;SDS011;18414;59.352;18.152;2023-06-26T06:10:37;3.72;;;2.40;;
31848;SDS011;18414;59.352;18.152;2023-06-26T06:13:02;3.22;;;2.22;;
31848;SDS011;18414;59.352;18.152;2023-06-26T06:15:27;3.55;;;2.38;;
31848;SDS011;18414;59.352;18.152;2023-06-26T06:17:53;2.53;;;2.08;;
31848;SDS011;18414;59.352;18.152;2023-06-26T06:20:18;3.17;;;2.08;;
31848;SDS011;18414;59.352;18.152;2023-06-26T06:22:45;1.98;;;1.83;;
31848;SDS011;18414;59.352;18.152;2023-06-26T06:25:10;2.10;;;1.88;;
31848;SDS011;18414;59.352;18.152;2023-06-26T06:27:35;2.50;;;2.20;;
31848;SDS011;18414;59.352;18.152;2023-06-26T06:30:01;3.50;;;2.15;;
31848;SDS011;18414;59.352;18.152;2023-06-26T06:32:26;3.35;;;2.00;;
31848;SDS011;18414;59.352;18.152;2023-06-26T06:34:52;2.70;;;2.00;;
31848;SDS011;18414;59.352;18.152;2023-06-26T06:37:17;3.58;;;2.15;;
31848;SDS011;18414;59.352;18.152;2023-06-26T06:39:42;2.92;;;2.05;;
31848;SDS011;18414;59.352;18.152;2023-06-26T06:42:08;2.50;;;2.30;;
31848;SDS011;18414;59.352;18.152;2023-06-26T06:44:33;3.17;;;2.65;;
31848;SDS011;18414;59.352;18.152;2023-06-26T06:46:58;2.83;;;2.45;;
31848;SDS011;18414;59.352;18.152;2023-06-26T06:49:24;2.50;;;2.22;;
31848;SDS011;18414;59.352;18.152;2023-06-26T06:51:49;3.72;;;2.40;;
31848;SDS011;18414;59.352;18.152;2023-06-26T06:54:15;2.78;;;2.28;;
31848;SDS011;18414;59.352;18.152;2023-06-26T06:56:41;2.75;;;2.45;;
31848;SDS011;18414;59.352;18.152;2023-06-26T06:59:07;3.60;;;1.95;;
31848;SDS011;18414;59.352;18.152;2023-06-26T07:01:32;2.30;;;2.10;;
31848;SDS011;18414;59.352;18.152;2023-06-26T07:03:59;2.08;;;1.98;;
31848;SDS011;18414;59.352;18.152;2023-06-26T07:06:24;4.57;;;2.30;;
31848;SDS011;18414;59.352;18.152;2023-06-26T07:08:50;5.85;;;2.20;;
31848;SDS011;18414;59.352;18.152;2023-06-26T07:11:15;3.72;;;2.60;;
31848;SDS011;18414;59.352;18.152;2023-06-26T07:13:41;2.85;;;2.20;;
31848;SDS011;18414;59.352;18.152;2023-06-26T07:16:06;4.20;;;1.90;;
31848;SDS011;18414;59.352;18.152;2023-06-26T07:18:31;3.15;;;2.58;;
31848;SDS011;18414;59.352;18.152;2023-06-26T07:20:57;2.55;;;2.28;;
31848;SDS011;18414;59.352;18.152;2023-06-26T07:23:22;3.03;;;2.33;;
31848;SDS011;18414;59.352;18.152;2023-06-26T07:25:48;2.30;;;2.10;;
31848;SDS011;18414;59.352;18.152;2023-06-26T07:28:13;2.33;;;2.10;;
31848;SDS011;18414;59.352;18.152;2023-06-26T07:30:38;6.10;;;2.55;;
31848;SDS011;18414;59.352;18.152;2023-06-26T07:33:04;2.33;;;2.10;;
31848;SDS011;18414;59.352;18.152;2023-06-26T07:35:30;2.40;;;1.92;;
31848;SDS011;18414;59.352;18.152;2023-06-26T07:37:55;3.80;;;2.05;;
31848;SDS011;18414;59.352;18.152;2023-06-26T07:40:20;2.40;;;2.20;;
31848;SDS011;18414;59.352;18.152;2023-06-26T07:42:46;2.55;;;2.00;;
31848;SDS011;18414;59.352;18.152;2023-06-26T07:45:11;4.72;;;2.08;;
31848;SDS011;18414;59.352;18.152;2023-06-26T07:47:40;3.15;;;2.30;;
31848;SDS011;18414;59.352;18.152;2023-06-26T07:50:06;2.20;;;1.92;;
31848;SDS011;18414;59.352;18.152;2023-06-26T07:52:31;2.67;;;2.13;;
31848;SDS011;18414;59.352;18.152;2023-06-26T07:54:57;3.58;;;2.10;;
31848;SDS011;18414;59.352;18.152;2023-06-26T07:57:22;2.95;;;2.22;;
31848;SDS011;18414;59.352;18.152;2023-06-26T07:59:48;4.45;;;2.40;;
31848;SDS011;18414;59.352;18.152;2023-06-26T08:02:13;2.50;;;1.80;;
31848;SDS011;18414;59.352;18.152;2023-06-26T08:04:39;3.45;;;2.30;;
31848;SDS011;18414;59.352;18.152;2023-06-26T08:07:04;2.20;;;2.00;;
31848;SDS011;18414;59.352;18.152;2023-06-26T08:09:30;2.30;;;1.98;;
31848;SDS011;18414;59.352;18.152;2023-06-26T08:11:56;2.88;;;1.98;;
31848;SDS011;18414;59.352;18.152;2023-06-26T08:14:22;2.50;;;1.83;;
31848;SDS011;18414;59.352;18.152;2023-06-26T08:16:48;2.72;;;2.17;;
31848;SDS011;18414;59.352;18.152;2023-06-26T08:19:14;2.30;;;2.10;;
31848;SDS011;18414;59.352;18.152;2023-06-26T08:21:40;3.03;;;1.90;;
31848;SDS011;18414;59.352;18.152;2023-06-26T08:24:06;2.15;;;1.95;;
31848;SDS011;18414;59.352;18.152;2023-06-26T08:26:32;2.45;;;2.00;;
31848;SDS011;18414;59.352;18.152;2023-06-26T08:28:57;2.47;;;1.98;;
31848;SDS011;18414;59.352;18.152;2023-06-26T08:31:22;2.67;;;2.10;;
31848;SDS011;18414;59.352;18.152;2023-06-26T08:33:48;3.03;;;2.30;;
31848;SDS011;18414;59.352;18.152;2023-06-26T08:36:13;2.20;;;1.95;;
31848;SDS011;18414;59.352;18.152;2023-06-26T08:38:38;3.22;;;2.20;;
31848;SDS011;18414;59.352;18.152;2023-06-26T08:41:07;2.22;;;2.00;;
31848;SDS011;18414;59.352;18.152;2023-06-26T08:43:33;2.30;;;2.03;;
31848;SDS011;18414;59.352;18.152;2023-06-26T08:45:59;2.67;;;2.20;;
31848;SDS011;18414;59.352;18.152;2023-06-26T08:48:24;2.65;;;2.10;;
31848;SDS011;18414;59.352;18.152;2023-06-26T08:50:52;2.90;;;2.00;;
31848;SDS011;18414;59.352;18.152;2023-06-26T08:53:33;2.58;;;2.20;;
31848;SDS011;18414;59.352;18.152;2023-06-26T08:56:22;6.13;;;2.33;;
31848;SDS011;18414;59.352;18.152;2023-06-26T08:58:49;2.20;;;2.00;;
31848;SDS011;18414;59.352;18.152;2023-06-26T09:01:15;2.97;;;2.10;;
31848;SDS011;18414;59.352;18.152;2023-06-26T09:03:41;4.47;;;2.03;;
31848;SDS011;18414;59.352;18.152;2023-06-26T09:06:07;3.15;;;1.92;;
31848;SDS011;18414;59.352;18.152;2023-06-26T09:08:33;3.63;;;2.08;;
31848;SDS011;18414;59.352;18.152;2023-06-26T09:10:58;2.58;;;2.22;;
31848;SDS011;18414;59.352;18.152;2023-06-26T09:13:23;1.95;;;1.63;;
31848;SDS011;18414;59.352;18.152;2023-06-26T09:15:49;4.10;;;1.90;;
31848;SDS011;18414;59.352;18.152;2023-06-26T09:18:16;2.65;;;1.90;;
31848;SDS011;18414;59.352;18.152;2023-06-26T09:20:43;3.15;;;2.00;;
31848;SDS011;18414;59.352;18.152;2023-06-26T09:23:08;2.42;;;2.20;;
31848;SDS011;18414;59.352;18.152;2023-06-26T09:25:34;2.38;;;2.17;;
31848;SDS011;18414;59.352;18.152;2023-06-26T09:28:03;2.03;;;1.83;;
31848;SDS011;18414;59.352;18.152;2023-06-26T09:30:28;2.13;;;1.92;;
31848;SDS011;18414;59.352;18.152;2023-06-26T09:32:57;1.92;;;1.77;;
31848;SDS011;18414;59.352;18.152;2023-06-26T09:35:22;1.85;;;1.73;;
31848;SDS011;18414;59.352;18.152;2023-06-26T09:37:48;2.25;;;1.80;;
31848;SDS011;18414;59.352;18.152;2023-06-26T09:40:14;2.45;;;1.80;;
31848;SDS011;18414;59.352;18.152;2023-06-26T09:42:40;1.70;;;1.60;;
31848;SDS011;18414;59.352;18.152;2023-06-26T09:45:06;1.85;;;1.73;;
31848;SDS011;18414;59.352;18.152;2023-06-26T09:47:32;1.92;;;1.73;;
31848;SDS011;18414;59.352;18.152;2023-06-26T09:49:59;2.85;;;1.77;;
31848;SDS011;18414;59.352;18.152;2023-06-26T09:52:27;1.92;;;1.70;;
31848;SDS011;18414;59.352;18.152;2023-06-26T09:55:08;3.13;;;1.67;;
31848;SDS011;18414;59.352;18.152;2023-06-26T09:57:34;1.90;;;1.70;;
31848;SDS011;18414;59.352;18.152;2023-06-26T10:00:00;3.22;;;1.65;;
31848;SDS011;18414;59.352;18.152;2023-06-26T10:02:26;1.58;;;1.48;;
31848;SDS011;18414;59.352;18.152;2023-06-26T10:04:52;1.60;;;1.50;;
31848;SDS011;18414;59.352;18.152;2023-06-26T10:07:17;2.42;;;1.77;;
31848;SDS011;18414;59.352;18.152;2023-06-26T10:09:44;2.35;;;1.70;;
31848;SDS011;18414;59.352;18.152;2023-06-26T10:14:41;2.20;;;1.92;;
31848;SDS011;18414;59.352;18.152;2023-06-26T10:17:10;2.17;;;1.80;;
31848;SDS011;18414;59.352;18.152;2023-06-26T10:19:36;2.85;;;1.95;;
31848;SDS011;18414;59.352;18.152;2023-06-26T10:22:03;1.80;;;1.70;;
31848;SDS011;18414;59.352;18.152;2023-06-26T10:24:29;2.13;;;1.65;;
31848;SDS011;18414;59.352;18.152;2023-06-26T10:27:07;2.10;;;1.90;;
31848;SDS011;18414;59.352;18.152;2023-06-26T10:29:35;1.70;;;1.60;;
31848;SDS011;18414;59.352;18.152;2023-06-26T10:32:02;1.95;;;1.70;;
31848;SDS011;18414;59.352;18.152;2023-06-26T10:34:29;1.80;;;1.70;;
31848;SDS011;18414;59.352;18.152;2023-06-26T10:37:04;1.60;;;1.50;;
31848;SDS011;18414;59.352;18.152;2023-06-26T10:39:48;1.80;;;1.70;;
31848;SDS011;18414;59.352;18.152;2023-06-26T10:42:14;1.63;;;1.38;;
31848;SDS011;18414;59.352;18.152;2023-06-26T10:44:41;2.05;;;1.65;;
31848;SDS011;18414;59.352;18.152;2023-06-26T10:47:08;1.50;;;1.40;;
31848;SDS011;18414;59.352;18.152;2023-06-26T10:49:35;1.60;;;1.50;;
31848;SDS011;18414;59.352;18.152;2023-06-26T10:52:04;2.00;;;1.60;;
31848;SDS011;18414;59.352;18.152;2023-06-26T10:54:30;2.00;;;1.50;;
31848;SDS011;18414;59.352;18.152;2023-06-26T10:56:56;2.03;;;1.83;;
31848;SDS011;18414;59.352;18.152;2023-06-26T10:59:23;2.50;;;1.63;;
31848;SDS011;18414;59.352;18.152;2023-06-26T11:01:59;1.88;;;1.40;;
31848;SDS011;18414;59.352;18.152;2023-06-26T11:07:21;2.47;;;1.60;;
31848;SDS011;18414;59.352;18.152;2023-06-26T11:09:54;1.50;;;1.40;;
31848;SDS011;18414;59.352;18.152;2023-06-26T11:12:39;1.65;;;1.52;;
31848;SDS011;18414;59.352;18.152;2023-06-26T11:15:10;2.17;;;1.40;;
31848;SDS011;18414;59.352;18.152;2023-06-26T11:17:39;2.90;;;1.60;;
31848;SDS011;18414;59.352;18.152;2023-06-26T11:20:11;3.88;;;1.55;;
31848;SDS011;18414;59.352;18.152;2023-06-26T11:22:38;1.30;;;1.20;;
31848;SDS011;18414;59.352;18.152;2023-06-26T11:25:05;2.35;;;1.50;;
31848;SDS011;18414;59.352;18.152;2023-06-26T11:30:04;1.20;;;1.10;;
31848;SDS011;18414;59.352;18.152;2023-06-26T11:32:30;2.13;;;1.30;;
31848;SDS011;18414;59.352;18.152;2023-06-26T11:34:57;1.75;;;1.40;;
31848;SDS011;18414;59.352;18.152;2023-06-26T11:37:24;3.50;;;1.27;;
31848;SDS011;18414;59.352;18.152;2023-06-26T11:39:49;3.15;;;1.40;;
31848;SDS011;18414;59.352;18.152;2023-06-26T11:42:16;6.28;;;1.17;;
31848;SDS011;18414;59.352;18.152;2023-06-26T11:44:41;2.75;;;1.40;;
31848;SDS011;18414;59.352;18.152;2023-06-26T11:47:08;1.50;;;1.40;;
31848;SDS011;18414;59.352;18.152;2023-06-26T11:49:35;1.83;;;1.27;;
31848;SDS011;18414;59.352;18.152;2023-06-26T11:52:02;2.80;;;1.50;;
31848;SDS011;18414;59.352;18.152;2023-06-26T11:54:28;1.90;;;1.27;;
31848;SDS011;18414;59.352;18.152;2023-06-26T11:56:57;1.48;;;1.33;;
31848;SDS011;18414;59.352;18.152;2023-06-26T11:59:23;1.95;;;1.50;;
31848;SDS011;18414;59.352;18.152;2023-06-26T12:01:50;2.88;;;1.05;;
31848;SDS011;18414;59.352;18.152;2023-06-26T12:04:17;2.00;;;1.42;;
31848;SDS011;18414;59.352;18.152;2023-06-26T12:06:51;1.20;;;1.10;;
31848;SDS011;18414;59.352;18.152;2023-06-26T12:09:22;1.38;;;1.27;;
31848;SDS011;18414;59.352;18.152;2023-06-26T12:11:48;1.15;;;1.05;;
31848;SDS011;18414;59.352;18.152;2023-06-26T12:14:16;1.70;;;1.10;;
31848;SDS011;18414;59.352;18.152;2023-06-26T12:16:43;1.50;;;1.25;;
31848;SDS011;18414;59.352;18.152;2023-06-26T12:19:08;1.20;;;1.10;;
31848;SDS011;18414;59.352;18.152;2023-06-26T12:24:02;2.50;;;1.10;;
31848;SDS011;18414;59.352;18.152;2023-06-26T12:26:28;1.40;;;1.30;;
31848;SDS011;18414;59.352;18.152;2023-06-26T12:29:01;1.00;;;0.90;;
31848;SDS011;18414;59.352;18.152;2023-06-26T12:31:29;2.75;;;1.10;;
31848;SDS011;18414;59.352;18.152;2023-06-26T12:33:56;2.35;;;1.10;;
31848;SDS011;18414;59.352;18.152;2023-06-26T12:36:22;1.33;;;1.10;;
31848;SDS011;18414;59.352;18.152;2023-06-26T12:38:48;1.58;;;1.40;;
31848;SDS011;18414;59.352;18.152;2023-06-26T12:41:14;1.42;;;1.20;;
31848;SDS011;18414;59.352;18.152;2023-06-26T12:43:39;2.17;;;1.30;;
31848;SDS011;18414;59.352;18.152;2023-06-26T12:46:05;1.98;;;1.42;;
31848;SDS011;18414;59.352;18.152;2023-06-26T12:48:40;1.98;;;1.55;;
31848;SDS011;18414;59.352;18.152;2023-06-26T12:51:09;1.27;;;1.08;;
31848;SDS011;18414;59.352;18.152;2023-06-26T12:53:36;1.20;;;1.10;;
31848;SDS011;18414;59.352;18.152;2023-06-26T12:56:01;1.25;;;1.15;;
31848;SDS011;18414;59.352;18.152;2023-06-26T12:58:27;1.63;;;1.40;;
31848;SDS011;18414;59.352;18.152;2023-06-26T13:00:52;1.35;;;1.17;;
31848;SDS011;18414;59.352;18.152;2023-06-26T13:03:18;1.33;;;1.23;;
31848;SDS011;18414;59.352;18.152;2023-06-26T13:05:45;1.27;;;1.17;;
31848;SDS011;18414;59.352;18.152;2023-06-26T13:08:11;1.10;;;1.00;;
31848;SDS011;18414;59.352;18.152;2023-06-26T13:10:36;1.30;;;1.20;;
31848;SDS011;18414;59.352;18.152;2023-06-26T13:13:01;1.52;;;1.23;;
31848;SDS011;18414;59.352;18.152;2023-06-26T13:15:27;1.52;;;1.27;;
31848;SDS011;18414;59.352;18.152;2023-06-26T13:17:53;1.70;;;1.15;;
31848;SDS011;18414;59.352;18.152;2023-06-26T13:20:18;1.42;;;1.00;;
31848;SDS011;18414;59.352;18.152;2023-06-26T13:22:43;4.07;;;2.10;;
31848;SDS011;18414;59.352;18.152;2023-06-26T13:25:10;1.30;;;1.20;;
31848;SDS011;18414;59.352;18.152;2023-06-26T13:27:36;3.90;;;1.27;;
31848;SDS011;18414;59.352;18.152;2023-06-26T13:30:01;1.00;;;0.90;;
31848;SDS011;18414;59.352;18.152;2023-06-26T13:32:27;2.75;;;1.17;;
31848;SDS011;18414;59.352;18.152;2023-06-26T13:34:52;0.85;;;0.70;;
31848;SDS011;18414;59.352;18.152;2023-06-26T13:37:19;1.20;;;1.05;;
31848;SDS011;18414;59.352;18.152;2023-06-26T13:39:44;1.20;;;1.10;;
31848;SDS011;18414;59.352;18.152;2023-06-26T13:42:14;1.30;;;1.20;;
31848;SDS011;18414;59.352;18.152;2023-06-26T13:44:40;1.33;;;1.20;;
31848;SDS011;18414;59.352;18.152;2023-06-26T13:47:06;1.35;;;1.25;;
31848;SDS011;18414;59.352;18.152;2023-06-26T13:49:31;0.93;;;0.90;;
31848;SDS011;18414;59.352;18.152;2023-06-26T13:51:57;1.40;;;1.25;;
31848;SDS011;18414;59.352;18.152;2023-06-26T13:54:22;1.63;;;1.27;;
31848;SDS011;18414;59.352;18.152;2023-06-26T13:56:47;1.27;;;1.00;;
31848;SDS011;18414;59.352;18.152;2023-06-26T13:59:13;1.67;;;1.33;;
31848;SDS011;18414;59.352;18.152;2023-06-26T14:01:39;1.55;;;1.40;;
31848;SDS011;18414;59.352;18.152;2023-06-26T14:04:04;1.35;;;1.10;;
31848;SDS011;18414;59.352;18.152;2023-06-26T14:06:30;1.80;;;1.48;;
31848;SDS011;18414;59.352;18.152;2023-06-26T14:08:57;1.40;;;1.23;;
31848;SDS011;18414;59.352;18.152;2023-06-26T14:11:22;1.20;;;1.10;;
31848;SDS011;18414;59.352;18.152;2023-06-26T14:13:48;1.42;;;1.33;;
31848;SDS011;18414;59.352;18.152;2023-06-26T14:16:13;1.67;;;1.00;;
31848;SDS011;18414;59.352;18.152;2023-06-26T14:18:40;1.30;;;1.10;;
31848;SDS011;18414;59.352;18.152;2023-06-26T14:21:05;1.48;;;1.38;;
31848;SDS011;18414;59.352;18.152;2023-06-26T14:23:30;1.52;;;1.10;;
31848;SDS011;18414;59.352;18.152;2023-06-26T14:25:56;1.77;;;1.42;;
31848;SDS011;18414;59.352;18.152;2023-06-26T14:28:21;1.00;;;0.90;;
31848;SDS011;18414;59.352;18.152;2023-06-26T14:30:46;2.00;;;1.20;;
31848;SDS011;18414;59.352;18.152;2023-06-26T14:33:12;1.48;;;1.38;;
31848;SDS011;18414;59.352;18.152;2023-06-26T14:35:37;1.50;;;1.40;;
31848;SDS011;18414;59.352;18.152;2023-06-26T14:38:03;1.33;;;1.23;;
31848;SDS011;18414;59.352;18.152;2023-06-26T14:40:28;4.95;;;1.38;;
31848;SDS011;18414;59.352;18.152;2023-06-26T14:42:53;1.70;;;1.20;;
31848;SDS011;18414;59.352;18.152;2023-06-26T14:45:18;1.45;;;1.30;;
31848;SDS011;18414;59.352;18.152;2023-06-26T14:47:44;1.30;;;1.17;;